Data for 08/22/2009

Time Sea-Level Adjusted Pressure Absolute Pressure Temperature Relative Humidity Dew Point   
(mb) (inHg) (mb) (inHg) (C) (F) (%) (C) (F)
00:05 1019 30.09 848 25.04 22.5 72.5 40 8.3 46.9
00:10 1019 30.09 848 25.04 20.7 69.3 46 8.9 48
00:15 1019 30.09 848 25.04 20.1 68.2 43 7.3 45.2
00:20 1019 30.09 848 25.04 20.7 69.2 43 7.7 45.8
00:25 1019 30.09 848 25.04 20.5 69 43 7.6 45.8
00:30 1019 30.09 848 25.04 20.4 68.8 44 7.8 46.1
00:35 1019 30.09 848 25.04 20.7 69.3 38 6 42.8
00:40 1019 30.09 848 25.04 22.1 71.8 37 6.7 44.1
00:45 1019 30.09 848 25.04 22.5 72.4 35 6.3 43.4
00:50 1018 30.06 848 25.04 22.7 72.9 36 7 44.7
00:55 1018 30.06 847 25.01 22.4 72.4 37 7.1 44.8
01:00 1018 30.06 847 25.01 22.2 72 37 7 44.6
01:05 1018 30.06 847 25.01 22.3 72.1 37 6.9 44.5
01:10 1018 30.06 847 25.01 22.3 72.2 36 6.7 44
01:15 1018 30.06 848 25.04 22.5 72.6 36 6.8 44.2
01:20 1018 30.06 848 25.04 22.4 72.2 36 6.8 44.3
01:25 1019 30.09 848 25.04 22.1 71.7 37 6.7 44.1
01:30 1019 30.09 848 25.04 21.8 71.3 40 7.7 45.8
01:35 1019 30.09 848 25.04 21.5 70.6 38 6.8 44.2
01:40 1018 30.06 848 25.04 21.4 70.5 38 6.5 43.7
01:45 1019 30.09 848 25.04 21.5 70.7 40 7.4 45.4
01:50 1019 30.09 848 25.04 21.1 70 39 6.9 44.4
01:55 1018 30.06 848 25.04 20.9 69.6 39 6.7 44
02:00 1018 30.06 848 25.04 20.8 69.5 40 7 44.5
02:05 1018 30.06 847 25.01 20.6 69.1 42 7.3 45.2
02:10 1018 30.06 847 25.01 20.3 68.6 44 7.7 45.8
02:15 1018 30.06 847 25.01 20.1 68.3 43 7.2 45
02:20 1018 30.06 847 25.01 20.4 68.6 43 7.4 45.4
02:25 1018 30.06 847 25.01 20.1 68.2 47 8.6 47.5
02:30 1018 30.06 847 25.01 19.8 67.6 44 7.5 45.5
02:35 1018 30.06 847 25.01 20.1 68.1 44 7.5 45.4
02:40 1018 30.06 847 25.01 20.6 69.1 42 7.6 45.6
02:45 1018 30.06 847 25.01 21.1 70 42 7.7 45.9
02:50 1018 30.06 847 25.01 21.4 70.6 41 7.8 46
02:55 1018 30.06 847 25.01 21.5 70.7 41 8 46.3
03:00 1018 30.06 847 25.01 21.5 70.7 41 7.9 46.2
03:05 1018 30.06 848 25.04 21.4 70.4 41 7.8 46
03:10 1018 30.06 848 25.04 20.6 69.1 46 8.8 47.9
03:15 1019 30.09 848 25.04 19 66.2 50 8.5 47.2
03:20 1019 30.09 848 25.04 18.2 64.8 52 8.4 47.1
03:25 1019 30.09 848 25.04 17.7 63.8 54 8.4 47.2
03:30 1019 30.09 848 25.04 17.3 63.2 55 8.4 47.2
03:35 1019 30.09 848 25.04 17.1 62.8 56 8.3 47
03:40 1019 30.09 848 25.04 17.1 62.7 56 8.4 47.2
03:45 1019 30.09 848 25.04 16.9 62.4 56 8.3 46.9
03:50 1019 30.09 848 25.04 16.9 62.5 58 8.6 47.5
03:55 1019 30.09 848 25.04 17 62.6 56 8.3 46.9
04:00 1019 30.09 848 25.04 17 62.6 58 8.7 47.7
04:05 1019 30.09 848 25.04 17 62.6 58 8.7 47.7
04:10 1019 30.09 848 25.04 17 62.7 57 8.5 47.4
04:15 1019 30.09 848 25.04 17.2 62.9 56 8.4 47.1
04:20 1019 30.09 848 25.04 17.2 62.9 56 8.3 46.9
04:25 1019 30.09 848 25.04 17.2 63 55 8.2 46.8
04:30 1019 30.09 848 25.04 17.2 63 57 8.8 47.8
04:35 1020 30.12 849 25.07 16.9 62.5 56 8.2 46.7
04:40 1020 30.12 849 25.07 16.5 61.7 58 8.3 46.9
04:45 1020 30.12 849 25.07 16.4 61.5 57 8.1 46.5
04:50 1020 30.12 849 25.07 15.9 60.7 61 8.6 47.5
04:55 1020 30.12 849 25.07 15.1 59.2 64 8.3 47
05:00 1020 30.12 849 25.07 14.8 58.6 64 8.1 46.6
05:05 1020 30.12 849 25.07 15.3 59.5 59 7.4 45.3
05:10 1020 30.12 849 25.07 15.8 60.4 57 7.3 45.1
05:15 1020 30.12 849 25.07 16.7 62.1 55 7.7 45.8
05:20 1020 30.12 849 25.07 16.1 61 60 8.5 47.2
05:25 1020 30.12 849 25.07 15.4 59.7 62 8.3 46.9
05:30 1020 30.12 849 25.07 15.2 59.4 60 7.6 45.8
05:35 1020 30.12 849 25.07 15.7 60.3 62 8.5 47.3
05:40 1020 30.12 849 25.07 15.6 60 60 8 46.4
05:45 1020 30.12 849 25.07 15.8 60.5 59 7.9 46.1
05:50 1020 30.12 849 25.07 16.1 60.9 60 8.3 47
05:55 1020 30.12 849 25.07 15.7 60.3 62 8.6 47.5
06:00 1020 30.12 849 25.07 15.5 60 64 8.9 48
06:05 1020 30.12 849 25.07 15.2 59.4 64 8.6 47.5
06:10 1020 30.12 849 25.07 14.9 58.7 65 8.5 47.3
06:15 1020 30.12 849 25.07 15 58.9 66 8.8 47.9
06:20 1020 30.12 849 25.07 14.8 58.6 65 8.4 47.1
06:25 1020 30.12 849 25.07 14.6 58.3 63 7.8 46.1
06:30 1020 30.12 849 25.07 14.6 58.2 64 7.9 46.2
06:35 1020 30.12 849 25.07 14.6 58.4 63 7.8 46
06:40 1020 30.12 849 25.07 14.6 58.3 63 7.8 46
06:45 1020 30.12 849 25.07 14.6 58.2 64 7.9 46.1
06:50 1020 30.12 849 25.07 14.4 57.8 65 7.9 46.3
06:55 1020 30.12 849 25.07 14.1 57.4 66 8 46.4
07:00 1020 30.12 849 25.07 13.7 56.6 69 8 46.5
07:05 1020 30.12 849 25.07 13.6 56.4 67 7.7 45.9
07:10 1020 30.12 849 25.07 13.8 56.8 66 7.7 45.8
07:15 1020 30.12 849 25.07 14.1 57.3 65 7.6 45.6
07:20 1020 30.12 849 25.07 14.5 58 64 7.7 45.9
07:25 1020 30.12 849 25.07 14.8 58.6 62 7.7 45.9
07:30 1020 30.12 849 25.07 15.1 59.2 61 7.6 45.7
07:35 1020 30.12 849 25.07 15.6 60.1 59 7.7 45.9
07:40 1020 30.12 849 25.07 15.8 60.4 59 7.9 46.2
07:45 1020 30.12 849 25.07 15.9 60.6 57 7.5 45.5
07:50 1020 30.12 849 25.07 16.3 61.3 57 7.8 46
07:55 1020 30.12 850 25.1 16.5 61.8 56 7.8 46
08:00 1020 30.12 850 25.1 16.8 62.2 56 7.9 46.3
08:05 1020 30.12 850 25.1 17.1 62.8 54 7.9 46.2
08:10 1020 30.12 850 25.1 17.6 63.7 54 8.4 47
08:15 1020 30.12 850 25.1 17.9 64.3 54 8.7 47.6
08:20 1020 30.12 850 25.1 18.1 64.7 54 8.8 47.9
08:25 1020 30.12 849 25.07 18 64.5 54 8.8 47.8
08:30 1020 30.12 849 25.07 18.4 65.1 54 9.1 48.4
08:35 1020 30.12 849 25.07 18.6 65.6 55 9.6 49.3
08:40 1020 30.12 849 25.07 18.8 65.8 53 9.2 48.5
08:45 1020 30.12 849 25.07 19 66.2 52 9.1 48.4
08:50 1020 30.12 849 25.07 19.4 66.8 52 9.3 48.8
08:55 1020 30.12 849 25.07 19.3 66.8 50 8.7 47.7
09:00 1020 30.12 849 25.07 19.6 67.3 50 9.1 48.3
09:05 1020 30.12 850 25.1 20.4 68.7 47 8.9 48
09:10 1020 30.12 849 25.07 20.8 69.4 46 9 48.1
09:15 1020 30.12 850 25.1 21.1 70 45 8.9 48
09:20 1020 30.12 850 25.1 21.4 70.6 44 8.8 47.8
09:25 1020 30.12 850 25.1 21.5 70.7 44 9 48.3
09:30 1020 30.12 849 25.07 22.2 71.9 41 8.6 47.4
09:35 1020 30.12 849 25.07 22.8 73 42 9.3 48.8
09:40 1020 30.12 849 25.07 22.9 73.3 39 8.6 47.4
09:45 1020 30.12 849 25.07 23.2 73.8 40 9 48.2
09:50 1020 30.12 849 25.07 22.7 72.8 40 8.7 47.7
09:55 1020 30.12 849 25.07 22.3 72.2 41 8.7 47.6
10:00 1020 30.12 849 25.07 23 73.3 39 8.4 47.1
10:05 1020 30.12 849 25.07 23.3 74 39 8.7 47.7
10:10 1020 30.12 849 25.07 23.3 73.9 40 9.1 48.4
10:15 1020 30.12 849 25.07 23.2 73.8 38 8.2 46.8
10:20 1020 30.12 849 25.07 23.8 74.8 38 8.9 48
10:25 1020 30.12 849 25.07 24 75.1 38 9 48.1
10:30 1020 30.12 849 25.07 23.9 75 38 9 48.3
10:35 1020 30.12 849 25.07 23.8 74.9 38 8.8 47.9
10:40 1020 30.12 850 25.1 24.4 75.8 38 9.2 48.6
10:45 1020 30.12 849 25.07 24.7 76.5 36 8.8 47.8
10:50 1020 30.12 849 25.07 24.4 75.8 38 9.2 48.5
10:55 1020 30.12 849 25.07 25 77.1 36 9.2 48.6
11:00 1020 30.12 849 25.07 24.6 76.2 38 9.5 49
11:05 1020 30.12 849 25.07 24.4 76 36 8.8 47.8
11:10 1020 30.12 849 25.07 24.9 76.7 37 9.5 49.1
11:15 1020 30.12 849 25.07 24.4 76 47 12.6 54.7
11:20 1020 30.12 849 25.07 24.4 75.9 47 12.6 54.6
11:25 1020 30.12 849 25.07 24.3 75.8 40 10.1 50.2
11:30 1020 30.12 849 25.07 24.7 76.4 39 10.1 50.1
11:35 1020 30.12 849 25.07 24.3 75.7 47 12.3 54.2
11:40 1020 30.12 849 25.07 24.1 75.3 49 13 55.3
11:45 1020 30.12 849 25.07 23.4 74.2 48 11.8 53.3
11:50 1020 30.12 849 25.07 23.3 73.9 46 11.3 52.3
11:55 1020 30.12 849 25.07 23.8 74.9 44 11.1 51.9
12:00 1020 30.12 849 25.07 24.2 75.6 43 11.2 52.1
12:05 1020 30.12 849 25.07 24.4 76 41 10.6 51.2
12:10 1020 30.12 849 25.07 24.8 76.6 36 8.9 48
12:15 1020 30.12 849 25.07 24 75.2 42 10.5 50.8
12:20 1020 30.12 849 25.07 24.2 75.6 37 8.8 47.9
12:25 1020 30.12 849 25.07 25.1 77.1 35 8.9 48
12:30 1020 30.12 849 25.07 25.1 77.1 34 8.2 46.8
12:35 1020 30.12 849 25.07 24.5 76.1 38 9.6 49.2
12:40 1020 30.12 849 25.07 24.9 76.8 36 8.9 47.9
12:45 1020 30.12 849 25.07 26 78.7 33 8.7 47.7
12:50 1019 30.09 849 25.07 26 78.9 33 8.7 47.7
12:55 1019 30.09 849 25.07 25.2 77.3 33 7.8 46.1
13:00 1019 30.09 849 25.07 25.8 78.5 31 7.7 45.8
13:05 1019 30.09 848 25.04 26.4 79.5 30 7.8 46
13:10 1019 30.09 848 25.04 26.5 79.7 26 5.9 42.7
13:15 1019 30.09 848 25.04 26.8 80.2 28 6.8 44.2
13:20 1019 30.09 848 25.04 26.7 80.1 29 7.3 45.1
13:25 1019 30.09 848 25.04 26.5 79.7 28 6.9 44.4
13:30 1019 30.09 848 25.04 27.6 81.8 26 6.5 43.7
13:35 1019 30.09 848 25.04 28.4 83 26 7.6 45.6
13:40 1019 30.09 848 25.04 28.3 82.9 27 7.5 45.5
13:45 1019 30.09 848 25.04 27.8 82.1 27 7.4 45.4
13:50 1019 30.09 848 25.04 28 82.4 27 7.5 45.5
13:55 1019 30.09 848 25.04 28 82.3 27 7.6 45.8
14:00 1018 30.06 848 25.04 28.3 82.9 26 7.1 44.9
14:05 1018 30.06 848 25.04 28.6 83.4 25 6.9 44.5
14:10 1018 30.06 847 25.01 28.4 83.1 27 7.8 46
14:15 1018 30.06 847 25.01 27.8 82.1 28 7.7 45.9
14:20 1018 30.06 847 25.01 28.7 83.6 26 7.6 45.7
14:25 1018 30.06 847 25.01 28.5 83.2 27 7.9 46.2
14:30 1018 30.06 847 25.01 29.4 84.9 25 7.6 45.6
14:35 1018 30.06 847 25.01 29.7 85.4 26 8.3 46.9
14:40 1018 30.06 847 25.01 28.6 83.5 27 8.2 46.8
14:45 1018 30.06 847 25.01 28.4 83.1 27 7.8 46
14:50 1018 30.06 847 25.01 28.4 83.2 27 8 46.4
14:55 1017 30.03 847 25.01 29.4 84.8 25 7.6 45.7
15:00 1017 30.03 847 25.01 30.3 86.5 25 8.3 47
15:05 1017 30.03 846 24.98 29.2 84.5 26 8 46.4
15:10 1017 30.03 846 24.98 29.9 85.8 23 6.9 44.5
15:15 1017 30.03 846 24.98 30.3 86.5 24 7.8 46
15:20 1017 30.03 846 24.98 30.4 86.7 23 7.5 45.5
15:25 1017 30.03 846 24.98 30.7 87.2 23 7.4 45.4
15:30 1017 30.03 846 24.98 29.9 85.8 23 6.9 44.3
15:35 1017 30.03 846 24.98 30.6 87 22 6.8 44.2
15:40 1017 30.03 846 24.98 29.8 85.6 22 6.4 43.5
15:45 1016 30 846 24.98 30.9 87.6 21 6.5 43.8
15:50 1016 30 846 24.98 31.6 88.8 22 7.4 45.3
15:55 1016 30 846 24.98 30.8 87.4 23 7.8 46
16:00 1016 30 845 24.95 30.4 86.8 22 6.5 43.7
16:05 1016 30 845 24.95 30.3 86.6 21 6.2 43.1
16:10 1016 30 845 24.95 31.1 87.9 21 6.7 44
16:15 1016 30 845 24.95 31.2 88.2 19 5.3 41.5
16:20 1016 30 845 24.95 31 87.8 20 5.5 42
16:25 1016 30 845 24.95 31 87.9 20 5.9 42.6
16:30 1016 30 845 24.95 31 87.9 20 6 42.8
16:35 1016 30 845 24.95 31.5 88.8 18 5.1 41.1
16:40 1016 30 845 24.95 31.9 89.5 19 5.8 42.5
16:45 1016 30 845 24.95 31.8 89.3 18 5 40.9
16:50 1016 30 845 24.95 31.8 89.2 18 4.7 40.5
16:55 1016 30 845 24.95 31.5 88.7 21 6.8 44.3
17:00 1016 30 845 24.95 29.9 85.8 23 6.7 44
17:05 1016 30 845 24.95 29.6 85.2 22 6.1 43
17:10 1016 30 845 24.95 29.5 85 22 5.8 42.4
17:15 1016 30 845 24.95 29.5 85.2 20 4.6 40.3
17:20 1016 30 845 24.95 29.5 85.2 23 6.5 43.6
17:25 1016 30 845 24.95 29.3 84.7 25 7.3 45.1
17:30 1016 30 845 24.95 28.8 83.8 25 7.2 44.9
17:35 1016 30 845 24.95 28.5 83.3 26 7.4 45.3
17:40 1016 30 845 24.95 28.3 83 24 6.3 43.4
17:45 1016 30 845 24.95 28.5 83.3 24 6.3 43.3
17:50 1016 30 845 24.95 28.6 83.4 27 8 46.5
17:55 1016 30 845 24.95 28.2 82.7 25 6.7 44.1
18:00 1016 30 846 24.98 28 82.5 20 3.2 37.8
18:05 1016 30 845 24.95 27.3 81.2 22 3.9 39
18:10 1016 30 846 24.98 26.2 79.2 28 6.5 43.7
18:15 1016 30 846 24.98 25.1 77.2 30 6.4 43.6
18:20 1016 30 846 24.98 25 76.9 30 6.2 43.2
18:25 1016 30 846 24.98 25.3 77.5 25 4.2 39.6
18:30 1016 30 846 24.98 25.8 78.4 24 3.8 38.8
18:35 1016 30 846 24.98 25.8 78.4 25 4.7 40.4
18:40 1017 30.03 846 24.98 25.1 77.2 31 7.1 44.7
18:45 1016 30 846 24.98 24.5 76.1 28 5 41.1
18:50 1016 30 846 24.98 25.7 78.2 21 1.9 35.4
18:55 1016 30 845 24.95 26.5 79.7 21 2.7 36.9
19:00 1016 30 846 24.98 26.4 79.5 22 3.6 38.4
19:05 1016 30 846 24.98 26.3 79.3 22 3.3 38
19:10 1016 30 846 24.98 26.3 79.3 22 3.3 38
19:15 1017 30.03 846 24.98 26.2 79.1 23 3.7 38.6
19:20 1017 30.03 846 24.98 26 78.8 24 4.2 39.5
19:25 1016 30 846 24.98 25.7 78.2 26 5.1 41.3
19:30 1016 30 845 24.95 25.6 78 24 4 39.2
19:35 1016 30 845 24.95 25.7 78.3 25 4.3 39.7
19:40 1016 30 845 24.95 25.9 78.5 23 3.6 38.5
19:45 1016 30 845 24.95 25.9 78.6 23 3.3 38
19:50 1016 30 845 24.95 26 78.8 20 1.6 34.8
19:55 1016 30 845 24.95 26.4 79.6 22 3.5 38.4
20:00 1016 30 845 24.95 26 78.9 20 1.7 35.1
20:05 1016 30 845 24.95 26.3 79.4 24 4.4 39.9
20:10 1016 30 845 24.95 26.1 78.9 23 3.8 38.8
20:15 1016 30 845 24.95 25.6 78 25 4.4 39.9
20:20 1016 30 845 24.95 25 77 26 4.2 39.6
20:25 1016 30 845 24.95 24.7 76.4 27 4.7 40.4
20:30 1016 30 846 24.98 24.3 75.7 28 4.8 40.6
20:35 1016 30 846 24.98 23.9 75.1 29 4.9 40.8
20:40 1016 30 846 24.98 23.8 74.8 29 4.9 40.8
20:45 1016 30 846 24.98 23.6 74.6 30 5.2 41.3
20:50 1016 30 846 24.98 23.4 74.2 29 4.7 40.4
20:55 1016 30 846 24.98 23.4 74.1 30 4.8 40.7
21:00 1016 30 846 24.98 23.2 73.8 30 4.8 40.7
21:05 1016 30 846 24.98 23.2 73.7 30 4.9 40.9
21:10 1016 30 846 24.98 23.2 73.7 30 5.1 41.1
21:15 1016 30 846 24.98 23 73.5 30 4.7 40.4
21:20 1017 30.03 846 24.98 23.1 73.6 30 4.7 40.4
21:25 1017 30.03 846 24.98 23.2 73.8 29 4.7 40.4
21:30 1017 30.03 846 24.98 23.2 73.7 29 4.4 39.9
21:35 1017 30.03 846 24.98 23.2 73.7 29 4.5 40.1
21:40 1017 30.03 846 24.98 23.2 73.8 29 4.4 40
21:45 1017 30.03 846 24.98 23.3 74 30 5 40.9
21:50 1017 30.03 846 24.98 22.9 73.3 33 5.9 42.6
21:55 1017 30.03 846 24.98 22.5 72.6 33 5.5 41.8
22:00 1017 30.03 846 24.98 22.1 71.8 35 6.2 43.1
22:05 1017 30.03 846 24.98 21.8 71.3 35 5.7 42.2
22:10 1017 30.03 846 24.98 21.9 71.4 32 4.8 40.6
22:15 1017 30.03 846 24.98 22.2 71.9 34 5.7 42.3
22:20 1017 30.03 846 24.98 22.1 71.8 33 5.1 41.2
22:25 1017 30.03 846 24.98 22 71.6 32 4.6 40.4
22:30 1017 30.03 846 24.98 22.1 71.7 32 4.7 40.5
22:35 1017 30.03 846 24.98 22 71.7 32 4.9 40.8
22:40 1017 30.03 846 24.98 21.9 71.4 34 5.3 41.6
22:45 1016 30 846 24.98 21.6 70.9 34 5.2 41.4
22:50 1016 30 845 24.95 21.3 70.4 35 5.5 42
22:55 1016 30 845 24.95 21.2 70.1 35 5.1 41.2
23:00 1015 29.97 845 24.95 21.2 70.2 35 5.3 41.5
23:05 1016 30 845 24.95 21.1 70 36 5.5 42
23:10 1016 30 845 24.95 21 69.8 38 6.3 43.4
23:15 1016 30 845 24.95 20.8 69.4 38 6.2 43.2
23:20 1016 30 845 24.95 20.6 69.1 38 5.9 42.5
23:25 1016 30 845 24.95 20.8 69.4 38 6 42.7
23:30 1016 30 845 24.95 21.1 69.9 36 5.5 41.9
23:35 1016 30 845 24.95 21.3 70.3 36 5.7 42.3
23:40 1016 30 845 24.95 21.2 70.2 36 5.5 42
23:45 1016 30 845 24.95 21 69.9 41 7.6 45.6
23:50 1016 30 845 24.95 20.9 69.7 35 5 41.1
23:55 1016 30 845 24.95 21 69.8 35 5.1 41.2
24:00 1016 30 845 24.95 20.6 69 42 7.2 45